Time;durP1;ratioP1;P1;durP2;ratioP2;P2;SDS_P1;SDS_P2;PMS_P1;PMS_P2;Temp;Humidity;BMP_temperature;BMP_pressure;BME280_temperature;BME280_humidity;BME280_pressure;Samples;Min_cycle;Max_cycle;Signal;HPM_P1;HPM_P2
2022/10/19 00:01:57;;;;;;;13.63;7.75;;;;;;;10.51;100.00;98312.13;5088131;28;20143;-58
2022/10/19 00:04:24;;;;;;;14.95;8.35;;;;;;;10.60;100.00;98316.16;5088728;28;20040;-59
2022/10/19 00:06:50;;;;;;;16.27;9.57;;;;;;;10.56;100.00;98314.97;5088465;28;20124;-58
2022/10/19 00:09:18;;;;;;;17.15;9.20;;;;;;;10.57;100.00;98313.09;5084268;28;20495;-59
2022/10/19 00:11:47;;;;;;;16.25;8.52;;;;;;;10.53;100.00;98318.97;5072071;28;20495;-59
2022/10/19 00:14:17;;;;;;;14.88;8.45;;;;;;;10.52;100.00;98306.47;5088119;28;20515;-59
2022/10/19 00:16:45;;;;;;;17.27;9.48;;;;;;;10.60;100.00;98321.56;5068742;28;20064;-58
2022/10/19 00:19:19;;;;;;;16.50;9.20;;;;;;;10.63;100.00;98312.16;5067840;28;20052;-58
2022/10/19 00:21:45;;;;;;;18.35;8.80;;;;;;;10.65;100.00;98313.59;5067876;28;20127;-59
2022/10/19 00:24:12;;;;;;;14.63;8.35;;;;;;;10.64;100.00;98305.69;5068169;28;20059;-57
2022/10/19 00:26:38;;;;;;;13.85;7.82;;;;;;;10.59;100.00;98302.84;5068289;28;20033;-59
2022/10/19 00:29:06;;;;;;;16.52;8.57;;;;;;;10.53;100.00;98308.13;5066792;28;20051;-58
2022/10/19 00:31:33;;;;;;;16.23;8.57;;;;;;;10.51;100.00;98307.50;5067493;28;20044;-57
2022/10/19 00:33:59;;;;;;;17.45;8.32;;;;;;;10.56;100.00;98312.25;5068273;28;20693;-58
2022/10/19 00:36:27;;;;;;;14.38;7.50;;;;;;;10.30;100.00;98308.81;5070063;28;20058;-58
2022/10/19 00:38:55;;;;;;;17.65;7.53;;;;;;;10.20;100.00;98308.50;5067963;28;20048;-58
2022/10/19 00:41:24;;;;;;;14.43;7.53;;;;;;;10.17;100.00;98304.34;5066731;28;20090;-57
2022/10/19 00:43:53;;;;;;;12.15;7.20;;;;;;;10.23;100.00;98310.75;5087968;28;20123;-57
2022/10/19 00:46:21;;;;;;;13.77;8.00;;;;;;;10.16;100.00;98313.53;5087951;28;20136;-58
2022/10/19 00:48:47;;;;;;;14.10;7.72;;;;;;;10.04;100.00;98308.06;5087539;28;20127;-59
2022/10/19 00:51:19;;;;;;;;;;;;;;;10.17;100.00;98312.47;5087926;28;20123;-59
2022/10/19 00:53:46;;;;;;;13.23;7.32;;;;;;;10.25;100.00;98308.66;5087585;28;19926;-58
2022/10/19 00:56:14;;;;;;;11.32;7.18;;;;;;;10.21;100.00;98302.84;5087812;28;20054;-57
2022/10/19 00:58:42;;;;;;;13.68;7.40;;;;;;;9.90;100.00;98301.97;5087465;28;20119;-58
2022/10/19 01:01:12;;;;;;;11.27;6.82;;;;;;;9.78;100.00;98303.75;5087153;28;20121;-59
2022/10/19 01:03:39;;;;;;;11.60;7.32;;;;;;;9.84;100.00;98300.16;5087421;28;20051;-58
2022/10/19 01:06:06;;;;;;;17.27;7.75;;;;;;;9.88;100.00;98296.78;5074839;28;20032;-59
2022/10/19 01:08:32;;;;;;;16.60;7.80;;;;;;;9.87;100.00;98303.25;5081205;28;20047;-55
2022/10/19 01:11:05;;;;;;;15.20;7.82;;;;;;;9.96;100.00;98303.78;5083679;28;20058;-58
2022/10/19 01:13:46;;;;;;;15.82;8.02;;;;;;;10.07;100.00;98306.78;5087486;28;20097;-57
2022/10/19 01:16:24;;;;;;;13.93;7.30;;;;;;;10.15;100.00;98311.88;5085924;28;20043;-59
2022/10/19 01:19:03;;;;;;;13.30;7.45;;;;;;;10.16;100.00;98310.84;5087458;28;20123;-58
2022/10/19 01:21:42;;;;;;;14.60;6.90;;;;;;;10.04;100.00;98296.41;5087030;28;20040;-58
2022/10/19 01:24:26;;;;;;;13.90;7.00;;;;;;;10.06;100.00;98294.31;5086294;28;20048;-58
2022/10/19 01:27:21;;;;;;;17.63;6.93;;;;;;;10.10;100.00;98307.16;5087592;28;20119;-59
2022/10/19 01:30:12;;;;;;;12.60;7.40;;;;;;;10.19;100.00;98294.16;5067200;28;20087;-56
2022/10/19 01:32:47;;;;;;;12.45;7.18;;;;;;;10.15;100.00;98292.94;5087183;28;20123;-57
2022/10/19 01:35:36;;;;;;;13.25;7.32;;;;;;;10.15;100.00;98290.25;5087335;28;20040;-57
2022/10/19 01:38:27;;;;;;;12.50;7.00;;;;;;;10.19;100.00;98283.31;5087128;28;20582;-58
2022/10/19 01:41:09;;;;;;;11.07;6.38;;;;;;;10.20;100.00;98284.97;5068837;28;20036;-58
2022/10/19 01:43:41;;;;;;;13.63;6.28;;;;;;;10.34;100.00;98280.22;5086380;28;20126;-57
2022/10/19 01:46:27;;;;;;;;;;;;;;;10.47;100.00;98276.53;5086883;28;20070;-58
2022/10/19 01:49:01;;;;;;;12.13;6.18;;;;;;;10.48;100.00;98272.78;5086679;28;19923;-59
2022/10/19 01:51:32;;;;;;;14.38;6.75;;;;;;;10.53;100.00;98281.03;5086045;28;20097;-58
2022/10/19 01:54:03;;;;;;;10.73;6.30;;;;;;;10.50;100.00;98269.81;5086743;28;20595;-59
2022/10/19 01:56:33;;;;;;;10.27;6.20;;;;;;;10.50;100.00;98270.66;5084439;28;20119;-59
2022/10/19 01:59:03;;;;;;;11.40;6.60;;;;;;;10.58;100.00;98272.22;5068388;28;20416;-58
2022/10/19 02:01:33;;;;;;;11.10;6.53;;;;;;;10.60;100.00;98267.41;5065751;28;20119;-59
2022/10/19 02:04:02;;;;;;;14.50;6.20;;;;;;;10.69;100.00;98273.31;5066735;28;20040;-59
2022/10/19 02:06:29;;;;;;;11.15;7.25;;;;;;;10.78;100.00;98269.25;5066263;28;20143;-60
2022/10/19 02:08:55;;;;;;;12.93;7.20;;;;;;;10.88;100.00;98270.56;5065940;28;20051;-59
2022/10/19 02:11:22;;;;;;;12.35;6.60;;;;;;;10.95;100.00;98267.75;5066457;28;20140;-57
2022/10/19 02:13:58;;;;;;;10.43;6.65;;;;;;;10.95;100.00;98267.75;5086384;28;20123;-57
2022/10/19 02:16:29;;;;;;;12.77;6.57;;;;;;;10.87;100.00;98260.78;5086188;28;20130;-58
2022/10/19 02:18:58;;;;;;;17.13;7.18;;;;;;;10.89;100.00;98269.50;5084592;28;20048;-58
2022/10/19 02:21:25;;;;;;;20.98;9.15;;;;;;;10.95;100.00;98271.28;5084518;28;20111;-58
2022/10/19 02:23:52;;;;;;;22.50;9.52;;;;;;;10.96;100.00;98262.09;5085684;28;20067;-53
2022/10/19 02:26:20;;;;;;;25.05;10.05;;;;;;;11.04;100.00;98271.75;5086118;28;20050;-56
2022/10/19 02:28:48;;;;;;;44.50;12.50;;;;;;;11.08;100.00;98263.97;5086233;28;20136;-57
2022/10/19 02:31:14;;;;;;;31.63;11.77;;;;;;;11.12;100.00;98262.47;5085729;28;20511;-58
2022/10/19 02:33:41;;;;;;;39.13;13.23;;;;;;;11.18;100.00;98265.06;5086162;28;20127;-59
2022/10/19 02:36:07;;;;;;;95.97;14.95;;;;;;;11.20;100.00;98262.13;5086066;28;20044;-57
2022/10/19 02:38:34;;;;;;;110.97;16.33;;;;;;;11.05;100.00;98262.56;5086316;28;20060;-56
2022/10/19 02:41:16;;;;;;;124.82;17.85;;;;;;;11.10;100.00;98267.31;5066911;28;20041;-56
2022/10/19 02:43:48;;;;;;;150.23;17.20;;;;;;;11.15;100.00;98270.97;5066229;28;20044;-59
2022/10/19 02:46:30;;;;;;;163.13;18.88;;;;;;;11.20;100.00;98262.13;5067720;28;20089;-57
2022/10/19 02:48:58;;;;;;;197.38;19.90;;;;;;;11.19;100.00;98263.19;5066073;28;20040;-59
2022/10/19 02:51:36;;;;;;;128.40;17.73;;;;;;;11.17;100.00;98262.59;5065286;28;20040;-57
2022/10/19 02:54:05;;;;;;;53.33;14.73;;;;;;;11.23;100.00;98263.53;5077168;28;20040;-55
2022/10/19 02:56:32;;;;;;;228.32;23.95;;;;;;;11.28;100.00;98260.97;5086131;28;20067;-58
2022/10/19 02:59:00;;;;;;;191.93;22.70;;;;;;;11.36;100.00;98254.38;5085888;28;20074;-57
2022/10/19 03:01:27;;;;;;;248.60;24.40;;;;;;;11.45;100.00;98258.38;5085652;28;20147;-57
2022/10/19 03:03:53;;;;;;;249.85;22.35;;;;;;;11.40;100.00;98256.38;5085874;28;20047;-56
2022/10/19 03:06:20;;;;;;;251.25;22.80;;;;;;;11.46;100.00;98251.88;5086086;28;20040;-56
2022/10/19 03:08:46;;;;;;;198.27;21.60;;;;;;;11.47;100.00;98252.72;5085669;28;20450;-59
2022/10/19 03:11:12;;;;;;;132.05;19.23;;;;;;;11.50;100.00;98239.50;5065261;28;20597;-57
2022/10/19 03:13:40;;;;;;;264.42;25.38;;;;;;;11.51;100.00;98232.19;5085644;28;20036;-59
2022/10/19 03:16:11;;;;;;;293.27;25.50;;;;;;;11.53;100.00;98236.31;5086014;28;20127;-59
2022/10/19 03:18:38;;;;;;;226.30;23.73;;;;;;;11.56;100.00;98235.84;5085987;28;20123;-57
2022/10/19 03:21:08;;;;;;;244.23;24.38;;;;;;;11.57;100.00;98236.66;5085081;28;20040;-58
2022/10/19 03:23:35;;;;;;;166.85;21.52;;;;;;;11.61;100.00;98231.59;5085735;28;20119;-58
2022/10/19 03:26:03;;;;;;;188.05;23.38;;;;;;;11.67;100.00;98230.63;5085685;28;20051;-59
2022/10/19 03:28:33;;;;;;;83.40;17.20;;;;;;;11.70;100.00;98228.28;5089727;28;20040;-59
2022/10/19 03:30:59;;;;;;;100.35;18.63;;;;;;;11.75;100.00;98222.13;5088712;28;20036;-59
2022/10/19 03:33:26;;;;;;;119.65;20.10;;;;;;;11.80;100.00;98227.66;5089277;28;20115;-59
2022/10/19 03:36:31;;;;;;;79.85;20.08;;;;;;;11.84;100.00;98231.56;5089320;28;20499;-61
2022/10/19 03:39:02;;;;;;;72.28;18.63;;;;;;;11.90;100.00;98226.25;5088159;28;20112;-58
2022/10/19 03:41:30;;;;;;;85.63;19.90;;;;;;;11.87;100.00;98219.38;5070347;28;20063;-59
2022/10/19 03:43:56;;;;;;;73.80;20.05;;;;;;;11.87;100.00;98226.72;5089437;28;20123;-58
2022/10/19 03:46:23;;;;;;;68.38;18.15;;;;;;;11.91;100.00;98231.41;5089129;28;20521;-59
2022/10/19 03:48:50;;;;;;;78.85;19.08;;;;;;;12.00;100.00;98228.34;5088766;28;20056;-59
2022/10/19 03:51:19;;;;;;;66.07;18.63;;;;;;;12.02;100.00;98232.44;5088617;28;20044;-60
2022/10/19 03:53:45;;;;;;;70.07;18.42;;;;;;;12.02;100.00;98231.66;5088970;28;20051;-59
2022/10/19 03:56:17;;;;;;;63.38;18.17;;;;;;;12.02;100.00;98237.06;5089104;28;20570;-59
2022/10/19 03:58:46;;;;;;;56.38;17.20;;;;;;;12.09;100.00;98235.91;5088762;28;20039;-58
2022/10/19 04:01:16;;;;;;;50.53;15.95;;;;;;;12.16;100.00;98235.75;5087998;28;20067;-59
2022/10/19 04:03:43;;;;;;;48.13;16.45;;;;;;;12.19;100.00;98232.56;5088554;28;20050;-59
2022/10/19 04:06:15;;;;;;;49.67;16.25;;;;;;;12.13;100.00;98228.13;5088828;28;20503;-59
2022/10/19 04:08:48;;;;;;;51.85;15.80;;;;;;;12.09;100.00;98221.50;5089024;28;20400;-59
2022/10/19 04:11:16;;;;;;;54.17;14.88;;;;;;;12.05;100.00;98220.31;5067981;28;20048;-59
2022/10/19 04:13:43;;;;;;;42.80;15.05;;;;;;;12.10;100.00;98217.72;5074016;28;20202;-58
2022/10/19 04:16:12;;;;;;;48.10;15.23;;;;;;;12.22;100.00;98223.94;5077112;28;20051;-56
2022/10/19 04:18:39;;;;;;;41.03;15.15;;;;;;;12.29;100.00;98220.25;5068395;28;20131;-57
2022/10/19 04:21:06;;;;;;;49.03;15.82;;;;;;;12.38;100.00;98220.69;5067315;28;20408;-58
2022/10/19 04:23:34;;;;;;;42.22;15.50;;;;;;;12.35;100.00;98219.28;5068512;28;20714;-59
2022/10/19 04:26:06;;;;;;;41.08;13.35;;;;;;;12.39;100.00;98222.34;5065833;28;20048;-59
2022/10/19 04:28:33;;;;;;;34.28;13.88;;;;;;;12.37;100.00;98219.88;5079825;28;20415;-59
2022/10/19 04:31:04;;;;;;;34.05;13.52;;;;;;;12.43;100.00;98213.47;5083269;28;20408;-60
2022/10/19 04:33:33;;;;;;;33.15;13.27;;;;;;;12.46;100.00;98209.44;5087477;28;20042;-59
2022/10/19 04:36:11;;;;;;;30.85;12.35;;;;;;;12.54;100.00;98209.06;5088134;28;20723;-59
2022/10/19 04:38:38;;;;;;;43.47;15.57;;;;;;;12.53;100.00;98215.53;5088113;28;20326;-59
2022/10/19 04:41:13;;;;;;;32.58;13.15;;;;;;;12.55;100.00;98205.25;5068935;28;20051;-59
2022/10/19 04:43:40;;;;;;;30.40;13.23;;;;;;;12.49;100.00;98206.22;5080508;28;20032;-59
2022/10/19 04:46:12;;;;;;;28.85;13.02;;;;;;;12.42;100.00;98200.13;5088140;28;20123;-60
2022/10/19 04:48:40;;;;;;;27.55;12.48;;;;;;;12.44;100.00;98212.41;5088086;28;20534;-59
2022/10/19 04:51:07;;;;;;;23.35;11.18;;;;;;;12.51;100.00;98211.41;5084426;28;20050;-58
2022/10/19 04:53:36;;;;;;;26.05;11.75;;;;;;;12.28;100.00;98192.28;5088248;28;20075;-59
2022/10/19 04:56:04;;;;;;;23.52;10.43;;;;;;;12.25;100.00;98202.78;5087540;28;20032;-60
2022/10/19 04:58:30;;;;;;;26.20;11.73;;;;;;;12.22;100.00;98199.50;5086474;28;20075;-59
2022/10/19 05:00:57;;;;;;;33.25;12.95;;;;;;;12.17;100.00;98201.28;5077143;28;20044;-59
2022/10/19 05:03:23;;;;;;;29.27;11.63;;;;;;;12.19;100.00;98210.00;5080824;28;20132;-59
2022/10/19 05:05:50;;;;;;;28.65;12.70;;;;;;;12.24;100.00;98202.00;5087039;28;20395;-58
2022/10/19 05:08:16;;;;;;;28.40;11.48;;;;;;;12.30;100.00;98200.16;5087639;28;20046;-58
2022/10/19 05:10:43;;;;;;;28.25;13.20;;;;;;;12.34;100.00;98206.75;5071319;28;20482;-57
2022/10/19 05:13:13;;;;;;;29.20;11.85;;;;;;;12.28;100.00;98202.31;5083402;28;20101;-60
2022/10/19 05:15:39;;;;;;;28.80;12.70;;;;;;;12.34;100.00;98201.31;5087595;28;20051;-59
2022/10/19 05:18:06;;;;;;;27.38;11.38;;;;;;;12.39;100.00;98204.16;5086941;28;20044;-60
2022/10/19 05:20:32;;;;;;;30.45;12.68;;;;;;;12.48;100.00;98201.88;5086792;28;20043;-60
2022/10/19 05:22:59;;;;;;;26.35;11.52;;;;;;;12.51;100.00;98204.09;5086945;28;20040;-61
2022/10/19 05:25:32;;;;;;;26.92;12.02;;;;;;;12.53;100.00;98201.94;5087224;28;20130;-59
2022/10/19 05:27:58;;;;;;;27.73;12.50;;;;;;;12.51;100.00;98198.66;5083536;28;20131;-59
2022/10/19 05:30:25;;;;;;;34.03;19.25;;;;;;;12.55;100.00;98197.13;5066753;28;20055;-60
2022/10/19 05:32:51;;;;;;;29.05;17.35;;;;;;;12.64;100.00;98196.72;5083964;28;20044;-60
2022/10/19 05:35:18;;;;;;;29.60;18.15;;;;;;;12.69;100.00;98191.34;5085553;28;20715;-59
2022/10/19 05:37:48;;;;;;;33.15;17.10;;;;;;;12.69;100.00;98192.19;5087128;28;20040;-60
2022/10/19 05:40:14;;;;;;;29.25;15.10;;;;;;;12.72;100.00;98188.97;5074770;28;20083;-59
2022/10/19 05:42:40;;;;;;;29.80;14.65;;;;;;;12.69;100.00;98192.19;5076172;28;20112;-59
2022/10/19 05:45:07;;;;;;;29.02;14.57;;;;;;;12.73;100.00;98187.09;5086341;28;20517;-59
2022/10/19 05:47:34;;;;;;;30.35;15.52;;;;;;;12.75;100.00;98206.66;5086936;28;20048;-58
2022/10/19 05:50:01;;;;;;;29.88;14.27;;;;;;;12.73;100.00;98190.63;5075897;28;20043;-58
2022/10/19 05:52:28;;;;;;;37.50;16.02;;;;;;;12.63;100.00;98192.34;5085056;28;20043;-59
2022/10/19 05:54:55;;;;;;;36.45;15.70;;;;;;;12.62;100.00;98196.97;5086776;28;20059;-58
2022/10/19 05:57:21;;;;;;;35.22;15.68;;;;;;;12.63;100.00;98193.16;5086347;28;20123;-58
2022/10/19 05:59:48;;;;;;;38.30;15.20;;;;;;;12.61;100.00;98192.59;5086648;28;20115;-58
2022/10/19 06:02:14;;;;;;;41.80;15.80;;;;;;;12.63;100.00;98205.94;5085039;28;20829;-57
2022/10/19 06:04:41;;;;;;;37.00;15.65;;;;;;;12.59;100.00;98200.16;5086252;28;20039;-59
2022/10/19 06:07:07;;;;;;;44.88;17.70;;;;;;;12.56;100.00;98206.06;5086465;28;20222;-59
2022/10/19 06:09:35;;;;;;;47.47;17.95;;;;;;;12.49;100.00;98204.34;5086428;28;20135;-57
2022/10/19 06:12:02;;;;;;;43.45;18.13;;;;;;;12.51;100.00;98206.81;5086104;28;20512;-58
2022/10/19 06:14:29;;;;;;;41.63;16.88;;;;;;;12.54;100.00;98214.47;5085895;28;20113;-59
2022/10/19 06:16:56;;;;;;;45.05;17.33;;;;;;;12.59;100.00;98216.44;5085057;28;20035;-58
2022/10/19 06:19:22;;;;;;;40.70;16.30;;;;;;;12.64;100.00;98221.16;5079538;28;20608;-60
2022/10/19 06:21:48;;;;;;;36.75;15.48;;;;;;;12.63;100.00;98222.25;5080046;28;20563;-60
2022/10/19 06:24:15;;;;;;;48.17;17.30;;;;;;;12.65;100.00;98220.09;5073255;28;20148;-59
2022/10/19 06:26:41;;;;;;;36.83;15.32;;;;;;;12.73;100.00;98225.13;5076466;28;20127;-60
2022/10/19 06:29:08;;;;;;;65.65;16.85;;;;;;;12.66;100.00;98219.84;5075530;28;20123;-59
2022/10/19 06:31:35;;;;;;;79.55;17.30;;;;;;;12.56;100.00;98220.47;5074104;28;20156;-59
2022/10/19 06:34:02;;;;;;;42.33;15.30;;;;;;;12.63;100.00;98223.03;5073884;28;20547;-59
2022/10/19 06:36:30;;;;;;;41.22;15.40;;;;;;;12.62;100.00;98226.84;5082948;28;20055;-58
2022/10/19 06:38:58;;;;;;;42.13;13.13;;;;;;;12.63;100.00;98224.97;5081723;28;20066;-60
2022/10/19 06:41:25;;;;;;;70.03;16.08;;;;;;;12.56;100.00;98228.63;5082426;28;20140;-60
2022/10/19 06:43:53;;;;;;;44.80;13.90;;;;;;;12.53;100.00;98218.25;5081747;28;20650;-59
2022/10/19 06:46:22;;;;;;;38.55;15.23;;;;;;;12.56;100.00;98233.22;5068660;28;20056;-59
2022/10/19 06:48:50;;;;;;;45.83;15.90;;;;;;;12.56;100.00;98236.78;5082607;28;20137;-59
2022/10/19 06:51:17;;;;;;;33.80;15.70;;;;;;;12.61;100.00;98231.44;5067301;28;20047;-57
2022/10/19 06:53:43;;;;;;;76.30;16.58;;;;;;;12.55;100.00;98232.44;5076921;28;20048;-58
2022/10/19 06:56:10;;;;;;;61.15;17.15;;;;;;;12.57;100.00;98238.44;5070779;28;20070;-58
2022/10/19 06:58:37;;;;;;;125.50;19.75;;;;;;;12.48;100.00;98235.28;5083798;28;20047;-57
2022/10/19 07:01:08;;;;;;;52.70;17.80;;;;;;;12.51;100.00;98238.56;5070899;28;20046;-59
2022/10/19 07:03:35;;;;;;;;;;;;;;;12.53;100.00;98247.31;5088413;28;20040;-58
2022/10/19 07:06:05;;;;;;;30.75;15.93;;;;;;;12.60;100.00;98248.81;5078142;28;19920;-59
2022/10/19 07:08:33;;;;;;;77.90;18.75;;;;;;;12.62;100.00;98251.28;5068908;28;20131;-60
2022/10/19 07:11:03;;;;;;;49.13;16.83;;;;;;;12.65;100.00;98249.97;5068828;28;20046;-60
2022/10/19 07:13:30;;;;;;;124.28;20.08;;;;;;;12.63;100.00;98247.50;5088080;28;20609;-59
2022/10/19 07:15:57;;;;;;;132.32;20.92;;;;;;;12.60;100.00;98251.53;5089370;28;20048;-60
2022/10/19 07:18:24;;;;;;;125.43;21.85;;;;;;;12.63;100.00;98239.34;5089544;28;20050;-59
2022/10/19 07:20:56;;;;;;;57.97;20.52;;;;;;;12.74;100.00;98246.63;5074184;28;20135;-59
2022/10/19 07:23:23;;;;;;;;;;;;;;;12.81;100.00;98243.75;5069815;28;20124;-59
2022/10/19 07:25:52;;;;;;;42.33;19.40;;;;;;;12.91;100.00;98248.53;5069162;28;19967;-59
2022/10/19 07:28:21;;;;;;;48.58;19.08;;;;;;;12.99;100.00;98250.84;5068940;28;20083;-59
2022/10/19 07:30:47;;;;;;;42.50;18.90;;;;;;;13.05;100.00;98243.59;5068822;28;20056;-58
2022/10/19 07:33:14;;;;;;;38.45;18.58;;;;;;;13.09;100.00;98242.03;5068837;28;20115;-58
2022/10/19 07:35:40;;;;;;;41.72;19.98;;;;;;;13.13;100.00;98231.50;5069106;28;20461;-60
2022/10/19 07:38:07;;;;;;;39.10;19.63;;;;;;;13.22;100.00;98230.00;5068584;28;20072;-58
2022/10/19 07:40:34;;;;;;;41.70;19.20;;;;;;;13.31;100.00;98229.59;5068741;28;20664;-60
2022/10/19 07:43:01;;;;;;;38.13;19.08;;;;;;;13.43;100.00;98226.75;5083314;28;20127;-60
2022/10/19 07:45:28;;;;;;;35.60;17.83;;;;;;;13.56;100.00;98226.44;5089226;28;20052;-59
2022/10/19 07:47:55;;;;;;;38.50;17.77;;;;;;;13.59;100.00;98216.94;5089077;28;20079;-60
2022/10/19 07:50:23;;;;;;;30.55;18.30;;;;;;;13.53;100.00;98216.88;5078208;28;20047;-60
2022/10/19 07:52:53;;;;;;;29.85;17.85;;;;;;;13.73;100.00;98218.25;5069093;28;20123;-60
2022/10/19 07:55:19;;;;;;;28.90;16.83;;;;;;;13.90;100.00;98214.66;5088897;28;20036;-60
2022/10/19 07:57:48;;;;;;;25.17;15.63;;;;;;;14.03;100.00;98208.00;5089018;28;20123;-60
2022/10/19 08:00:17;;;;;;;23.92;15.57;;;;;;;14.16;100.00;98213.03;5088259;28;20067;-60
2022/10/19 08:02:43;;;;;;;23.63;14.93;;;;;;;14.31;100.00;98214.31;5082686;28;20046;-59
2022/10/19 08:05:33;;;;;;;16.27;10.13;;;;;;;14.37;100.00;98202.38;5083000;28;20055;-60
2022/10/19 08:07:59;;;;;;;16.65;10.88;;;;;;;14.64;100.00;98207.03;5086610;28;20044;-60
2022/10/19 08:10:26;;;;;;;19.23;12.00;;;;;;;14.71;100.00;98212.25;5079296;28;20128;-60
2022/10/19 08:12:52;;;;;;;19.20;13.40;;;;;;;14.75;100.00;98207.09;5086138;28;20119;-60
2022/10/19 08:15:19;;;;;;;22.95;14.05;;;;;;;14.62;100.00;98213.78;5083234;28;20688;-60
2022/10/19 08:17:45;;;;;;;23.35;14.80;;;;;;;14.38;100.00;98204.00;5084226;28;20054;-60
2022/10/19 08:20:11;;;;;;;23.00;13.35;;;;;;;14.31;100.00;98201.50;5081727;28;20147;-59
2022/10/19 08:22:38;;;;;;;21.45;12.50;;;;;;;14.44;100.00;98205.72;5085967;28;20123;-60
2022/10/19 08:25:05;;;;;;;18.83;12.38;;;;;;;14.54;100.00;98206.91;5083713;28;20802;-59
2022/10/19 08:27:31;;;;;;;19.58;11.63;;;;;;;14.50;100.00;98203.88;5087379;28;20119;-59
2022/10/19 08:29:58;;;;;;;18.35;11.25;;;;;;;14.61;100.00;98206.69;5088478;28;20050;-59
2022/10/19 08:32:24;;;;;;;15.38;10.73;;;;;;;14.66;100.00;98204.84;5087539;28;20119;-59
2022/10/19 08:34:50;;;;;;;16.38;11.18;;;;;;;14.73;100.00;98206.53;5087196;28;20138;-59
2022/10/19 08:37:17;;;;;;;19.73;11.63;;;;;;;14.69;100.00;98193.44;5088471;28;20046;-60
2022/10/19 08:40:04;;;;;;;16.23;10.82;;;;;;;14.72;100.00;98199.44;5079110;28;20044;-58
2022/10/19 08:43:03;;;;;;;21.42;12.63;;;;;;;14.64;100.00;98207.03;5082938;28;20070;-60
2022/10/19 08:45:37;;;;;;;17.63;11.02;;;;;;;14.73;100.00;98204.63;5083304;28;20048;-60
2022/10/19 08:48:28;;;;;;;17.80;11.43;;;;;;;14.89;100.00;98211.06;5085978;28;20044;-59
2022/10/19 08:50:57;;;;;;;18.17;11.40;;;;;;;14.94;100.00;98202.13;5067911;28;20135;-58
2022/10/19 08:53:32;;;;;;;17.90;11.70;;;;;;;15.03;100.00;98208.72;5075914;28;20314;-60
2022/10/19 08:56:20;;;;;;;17.13;10.13;;;;;;;15.11;100.00;98210.16;5072196;28;20046;-59
2022/10/19 08:59:19;;;;;;;13.00;10.05;;;;;;;15.14;100.00;98204.19;5085875;28;20048;-60
2022/10/19 09:02:01;;;;;;;18.05;10.10;;;;;;;15.37;100.00;98195.88;5084952;28;20127;-61
2022/10/19 09:04:39;;;;;;;;;;;;;;;15.09;100.00;98195.97;5086455;28;20121;-60
2022/10/19 09:07:29;;;;;;;17.67;10.73;;;;;;;15.19;100.00;98195.22;5080281;28;20353;-60
2022/10/19 09:10:01;;;;;;;13.85;8.57;;;;;;;15.24;99.59;98194.41;5073324;28;20720;-60
2022/10/19 09:12:34;;;;;;;12.95;8.23;;;;;;;15.15;99.36;98189.44;5079703;28;20082;-60
2022/10/19 09:15:15;;;;;;;12.35;8.55;;;;;;;15.11;100.00;98190.25;5077122;28;20052;-60
2022/10/19 09:17:41;;;;;;;12.95;8.80;;;;;;;15.31;100.00;98186.84;5085389;28;20126;-60
2022/10/19 09:20:26;;;;;;;14.82;9.15;;;;;;;15.27;99.31;98180.25;5084641;28;20508;-59
2022/10/19 09:23:05;;;;;;;14.82;9.40;;;;;;;15.17;99.70;98181.84;5078122;28;20124;-60
2022/10/19 09:25:38;;;;;;;15.25;10.15;;;;;;;15.12;99.19;98179.09;5085149;28;20048;-60
2022/10/19 09:28:29;;;;;;;15.57;9.30;;;;;;;15.17;99.03;98181.84;5084523;28;20159;-60
2022/10/19 09:31:09;;;;;;;12.32;8.30;;;;;;;14.99;98.55;98179.50;5085014;28;20596;-60
2022/10/19 09:33:38;;;;;;;14.40;9.15;;;;;;;15.07;100.00;98181.75;5085131;28;20044;-60
2022/10/19 09:36:06;;;;;;;15.68;10.07;;;;;;;14.99;100.00;98179.50;5085116;28;20492;-59
2022/10/19 09:38:33;;;;;;;15.05;11.55;;;;;;;14.75;100.00;98177.13;5084978;28;20544;-59
2022/10/19 09:41:14;;;;;;;13.95;10.45;;;;;;;14.91;100.00;98178.91;5084496;28;20055;-58
2022/10/19 09:43:49;;;;;;;14.25;8.32;;;;;;;14.88;100.00;98184.06;5076671;28;20534;-62
2022/10/19 09:46:36;;;;;;;11.02;7.90;;;;;;;15.00;99.55;98187.44;5082562;28;20043;-57
2022/10/19 09:49:05;;;;;;;12.32;8.00;;;;;;;15.09;98.23;98185.06;5076215;28;20048;-58
2022/10/19 09:51:50;;;;;;;10.85;7.43;;;;;;;15.20;96.86;98186.78;5075146;28;20127;-58
2022/10/19 09:54:31;;;;;;;11.35;8.07;;;;;;;15.03;97.83;98184.19;5084282;28;20044;-60
2022/10/19 09:56:57;;;;;;;10.65;7.78;;;;;;;14.93;97.95;98190.38;5077201;28;20063;-60
2022/10/19 09:59:29;;;;;;;12.25;8.52;;;;;;;14.93;97.56;98190.38;5084061;28;20294;-60
2022/10/19 10:02:04;;;;;;;11.05;6.43;;;;;;;14.92;96.66;98187.91;5082358;28;20477;-60
2022/10/19 10:04:31;;;;;;;12.63;7.60;;;;;;;14.86;96.85;98184.34;5084333;28;20119;-60
2022/10/19 10:06:58;;;;;;;11.77;7.22;;;;;;;14.82;97.30;98186.75;5084328;28;20131;-60
2022/10/19 10:09:27;;;;;;;10.00;6.18;;;;;;;14.68;96.32;98178.13;5084530;28;20051;-59
2022/10/19 10:11:57;;;;;;;9.52;6.57;;;;;;;14.74;96.44;98179.00;5082589;28;20093;-60
2022/10/19 10:14:32;;;;;;;9.80;6.13;;;;;;;14.89;96.36;98177.53;5082919;28;20111;-60
2022/10/19 10:17:06;;;;;;;10.98;6.10;;;;;;;15.10;95.10;98183.97;5085842;28;20119;-60
2022/10/19 10:19:34;;;;;;;8.27;6.05;;;;;;;14.87;95.09;98176.97;5081610;28;20645;-60
2022/10/19 10:22:02;;;;;;;10.45;6.00;;;;;;;14.90;95.95;98177.28;5083850;28;20048;-59
2022/10/19 10:24:31;;;;;;;9.82;6.45;;;;;;;14.81;97.13;98181.53;5078477;28;20028;-60
2022/10/19 10:27:03;;;;;;;9.98;6.88;;;;;;;14.79;97.65;98181.00;5075868;28;20557;-60
2022/10/19 10:29:33;;;;;;;13.65;7.28;;;;;;;14.93;97.26;98184.94;5070952;28;20040;-60
2022/10/19 10:32:03;;;;;;;9.27;6.47;;;;;;;14.85;96.95;98187.31;5074029;28;20522;-59
2022/10/19 10:34:33;;;;;;;9.88;6.60;;;;;;;14.90;96.80;98179.19;5074475;28;20107;-59
2022/10/19 10:37:40;;;;;;;12.15;7.40;;;;;;;15.01;96.26;98171.91;5079250;28;20035;-60
2022/10/19 10:40:19;;;;;;;9.13;6.55;;;;;;;15.07;95.23;98168.94;5083076;28;20134;-59
2022/10/19 10:42:51;;;;;;;11.77;6.75;;;;;;;15.01;96.35;98169.16;5087727;28;20044;-59
2022/10/19 10:45:51;;;;;;;12.30;6.78;;;;;;;14.98;96.50;98159.59;5077737;28;20115;-60
2022/10/19 10:48:21;;;;;;;10.02;6.95;;;;;;;14.91;96.27;98159.84;5066347;28;20048;-59
2022/10/19 10:50:47;;;;;;;8.98;6.32;;;;;;;14.86;96.71;98151.63;5087831;28;20044;-59
2022/10/19 10:53:39;;;;;;;10.40;6.47;;;;;;;14.89;96.01;98153.81;5076042;28;20124;-60
2022/10/19 10:56:20;;;;;;;12.43;7.28;;;;;;;14.70;96.89;98148.72;5084984;28;20509;-60
2022/10/19 10:58:56;;;;;;;12.88;6.78;;;;;;;14.78;96.79;98157.56;5087826;28;20464;-60
2022/10/19 11:01:27;;;;;;;9.43;6.82;;;;;;;14.88;96.58;98143.16;5087500;28;20040;-60
2022/10/19 11:04:05;;;;;;;10.05;6.25;;;;;;;14.93;97.32;98152.19;5087949;28;20450;-59
2022/10/19 11:06:39;;;;;;;8.85;6.05;;;;;;;14.94;95.83;98148.41;5087867;28;20410;-59
2022/10/19 11:09:30;;;;;;;11.00;6.47;;;;;;;14.69;97.78;98147.09;5077367;28;20040;-59
2022/10/19 11:12:02;;;;;;;8.73;5.55;;;;;;;14.71;98.23;98149.56;5080296;28;20044;-59
2022/10/19 11:14:48;;;;;;;7.72;5.38;;;;;;;14.78;97.84;98146.66;5071380;28;20048;-60
2022/10/19 11:17:22;;;;;;;7.70;5.28;;;;;;;14.69;97.42;98140.81;5077693;28;20044;-59
2022/10/19 11:19:50;;;;;;;7.75;5.50;;;;;;;14.88;96.17;98134.97;5078208;28;20075;-59
2022/10/19 11:22:25;;;;;;;7.18;4.82;;;;;;;15.03;94.26;98128.81;5086694;28;20071;-61
2022/10/19 11:24:52;;;;;;;7.43;4.75;;;;;;;15.17;94.08;98127.28;5087771;28;20052;-60
2022/10/19 11:27:46;;;;;;;13.55;3.90;;;;;;;15.25;91.74;98125.16;5086882;28;20055;-60
2022/10/19 11:30:18;;;;;;;5.38;3.92;;;;;;;15.20;92.30;98117.75;5084912;28;20142;-59
2022/10/19 11:33:19;;;;;;;6.90;3.83;;;;;;;15.45;91.39;98111.59;5087045;28;20036;-58